createdAt,value
2023-01-13T00:00:18.723Z,129.88
2023-01-13T00:01:18.685Z,129.88
2023-01-13T00:02:18.706Z,129.88
2023-01-13T00:03:18.677Z,129.88
2023-01-13T00:04:18.676Z,108.71
2023-01-13T00:05:18.677Z,97.41
2023-01-13T00:06:18.680Z,131.29
2023-01-13T00:07:18.693Z,163.76
2023-01-13T00:08:18.676Z,159.53
2023-01-13T00:09:18.668Z,199.06
2023-01-13T00:10:18.703Z,254.12
2023-01-13T00:11:18.717Z,227.29
2023-01-13T00:12:18.679Z,194.82
2023-01-13T00:13:18.681Z,194.82
2023-01-13T00:14:18.687Z,194.82
2023-01-13T00:15:18.682Z,194.82
2023-01-13T00:16:18.786Z,194.82
2023-01-13T00:17:18.693Z,194.82
2023-01-13T00:18:18.693Z,14.12
2023-01-13T00:19:18.695Z,28.24
2023-01-13T00:20:18.715Z,28.24
2023-01-13T00:21:18.698Z,28.24
2023-01-13T00:22:18.707Z,28.24
2023-01-13T00:23:18.712Z,28.24
2023-01-13T00:24:18.694Z,28.24
2023-01-13T00:25:18.703Z,28.24
2023-01-13T00:26:18.703Z,28.24
2023-01-13T00:27:18.718Z,28.24
2023-01-13T00:28:18.706Z,28.24
2023-01-13T00:29:18.706Z,28.24
2023-01-13T00:30:18.715Z,28.24
2023-01-13T00:31:18.736Z,28.24
2023-01-13T00:32:18.708Z,28.24
2023-01-13T00:33:18.709Z,28.24
2023-01-13T00:34:18.715Z,28.24
2023-01-13T00:35:18.704Z,28.24
2023-01-13T00:36:18.722Z,28.24
2023-01-13T00:37:18.702Z,28.24
2023-01-13T00:38:18.711Z,28.24
2023-01-13T00:39:18.732Z,28.24
2023-01-13T00:40:18.714Z,28.24
2023-01-13T00:41:18.728Z,28.24
2023-01-13T00:42:18.730Z,28.24
2023-01-13T00:43:18.778Z,73.41
2023-01-13T00:44:18.737Z,73.41
2023-01-13T00:45:18.735Z,56.47
2023-01-13T00:46:18.757Z,56.47
2023-01-13T00:47:18.723Z,56.47
2023-01-13T00:48:18.721Z,56.47
2023-01-13T00:49:18.727Z,56.47
2023-01-13T00:50:18.727Z,56.47
2023-01-13T00:51:18.737Z,56.47
2023-01-13T00:52:18.732Z,56.47
2023-01-13T00:53:18.728Z,56.47
2023-01-13T00:54:18.738Z,56.47
2023-01-13T00:55:18.755Z,56.47
2023-01-13T00:56:22.089Z,56.47
2023-01-13T00:57:18.740Z,56.47
2023-01-13T00:58:18.747Z,56.47
2023-01-13T00:59:18.760Z,56.47
2023-01-13T01:00:18.746Z,56.47
2023-01-13T01:01:18.850Z,56.47
2023-01-13T01:02:18.799Z,56.47
2023-01-13T01:03:18.739Z,56.47
2023-01-13T01:04:18.738Z,56.47
2023-01-13T01:05:18.743Z,56.47
2023-01-13T01:06:18.740Z,56.47
2023-01-13T01:07:18.748Z,56.47
2023-01-13T01:08:18.741Z,56.47
2023-01-13T01:09:18.752Z,56.47
2023-01-13T01:10:18.753Z,56.47
2023-01-13T01:11:18.762Z,56.47
2023-01-13T01:12:18.752Z,56.47
2023-01-13T01:13:18.753Z,56.47
2023-01-13T01:14:18.759Z,56.47
2023-01-13T01:15:18.771Z,56.47
2023-01-13T01:16:18.807Z,56.47
2023-01-13T01:17:18.760Z,56.47
2023-01-13T01:18:18.772Z,56.47
2023-01-13T01:19:18.761Z,56.47
2023-01-13T01:20:18.776Z,56.47
2023-01-13T01:21:18.761Z,56.47
2023-01-13T01:22:18.766Z,56.47
2023-01-13T01:23:18.765Z,56.47
2023-01-13T01:24:18.782Z,56.47
2023-01-13T01:25:18.795Z,56.47
2023-01-13T01:26:18.788Z,56.47
2023-01-13T01:27:18.765Z,56.47
2023-01-13T01:28:18.764Z,56.47
2023-01-13T01:29:18.767Z,56.47
2023-01-13T01:30:18.789Z,56.47
2023-01-13T01:31:18.877Z,56.47
2023-01-13T01:32:18.770Z,56.47
2023-01-13T01:33:18.783Z,56.47
2023-01-13T01:34:18.772Z,56.47
2023-01-13T01:35:18.788Z,56.47
2023-01-13T01:36:18.775Z,56.47
2023-01-13T01:37:18.769Z,56.47
2023-01-13T01:38:18.784Z,56.47
2023-01-13T01:39:18.795Z,56.47
2023-01-13T01:40:18.776Z,56.47
2023-01-13T01:41:18.799Z,56.47
2023-01-13T01:42:18.788Z,56.47
2023-01-13T01:43:18.777Z,56.47
2023-01-13T01:44:18.777Z,56.47
2023-01-13T01:45:18.778Z,56.47
2023-01-13T01:46:18.832Z,56.47
2023-01-13T01:47:18.805Z,56.47
2023-01-13T01:48:18.780Z,56.47
2023-01-13T01:49:18.788Z,56.47
2023-01-13T01:50:18.797Z,56.47
2023-01-13T01:51:18.785Z,56.47
2023-01-13T01:52:18.789Z,56.47
2023-01-13T01:53:18.779Z,56.47
2023-01-13T01:54:18.795Z,56.47
2023-01-13T01:55:18.806Z,56.47
2023-01-13T01:56:18.795Z,56.47
2023-01-13T01:57:18.812Z,56.47
2023-01-13T01:58:18.798Z,56.47
2023-01-13T01:59:18.794Z,56.47
2023-01-13T02:00:18.831Z,56.47
2023-01-13T02:01:18.954Z,56.47
2023-01-13T02:02:18.880Z,56.47
2023-01-13T02:03:18.829Z,56.47
2023-01-13T02:04:18.788Z,56.47
2023-01-13T02:05:18.794Z,56.47
2023-01-13T02:06:18.798Z,56.47
2023-01-13T02:07:18.856Z,56.47
2023-01-13T02:08:18.810Z,56.47
2023-01-13T02:09:18.816Z,56.47
2023-01-13T02:10:18.801Z,56.47
2023-01-13T02:11:18.798Z,56.47
2023-01-13T02:12:18.801Z,56.47
2023-01-13T02:13:18.813Z,56.47
2023-01-13T02:14:18.804Z,56.47
2023-01-13T02:15:18.828Z,56.47
2023-01-13T02:16:18.853Z,56.47
2023-01-13T02:17:18.802Z,56.47
2023-01-13T02:18:18.818Z,56.47
2023-01-13T02:19:18.837Z,56.47
2023-01-13T02:20:18.802Z,56.47
2023-01-13T02:21:18.809Z,56.47
2023-01-13T02:22:18.799Z,56.47
2023-01-13T02:23:18.801Z,56.47
2023-01-13T02:24:18.813Z,56.47
2023-01-13T02:25:18.803Z,56.47
2023-01-13T02:26:18.826Z,56.47
2023-01-13T02:27:18.809Z,56.47
2023-01-13T02:28:18.827Z,56.47
2023-01-13T02:29:18.817Z,56.47
2023-01-13T02:30:18.840Z,56.47
2023-01-13T02:31:18.863Z,56.47
2023-01-13T02:32:18.806Z,56.47
2023-01-13T02:33:18.803Z,56.47
2023-01-13T02:34:18.804Z,56.47
2023-01-13T02:35:18.832Z,56.47
2023-01-13T02:36:18.805Z,56.47
2023-01-13T02:37:18.807Z,56.47
2023-01-13T02:38:18.839Z,56.47
2023-01-13T02:39:18.799Z,56.47
2023-01-13T02:40:18.824Z,56.47
2023-01-13T02:41:18.823Z,56.47
2023-01-13T02:42:18.805Z,56.47
2023-01-13T02:43:18.809Z,56.47
2023-01-13T02:44:18.829Z,56.47
2023-01-13T02:45:18.838Z,56.47
2023-01-13T02:46:18.820Z,56.47
2023-01-13T02:47:18.810Z,56.47
2023-01-13T02:48:18.813Z,56.47
2023-01-13T02:49:18.798Z,56.47
2023-01-13T02:50:18.829Z,56.47
2023-01-13T02:51:18.875Z,56.47
2023-01-13T02:52:18.823Z,56.47
2023-01-13T02:53:18.831Z,56.47
2023-01-13T02:54:18.837Z,56.47
2023-01-13T02:55:18.827Z,56.47
2023-01-13T02:56:18.823Z,56.47
2023-01-13T02:57:18.815Z,56.47
2023-01-13T02:58:18.814Z,56.47
2023-01-13T02:59:18.814Z,56.47
2023-01-13T03:00:18.816Z,56.47
2023-01-13T03:01:18.910Z,56.47
2023-01-13T03:02:19.010Z,56.47
2023-01-13T03:03:18.827Z,56.47
2023-01-13T03:04:18.823Z,56.47
2023-01-13T03:05:18.836Z,56.47
2023-01-13T03:06:18.839Z,56.47
2023-01-13T03:07:18.852Z,56.47
2023-01-13T03:08:18.831Z,56.47
2023-01-13T03:09:18.836Z,56.47
2023-01-13T03:10:18.831Z,56.47
2023-01-13T03:11:18.846Z,56.47
2023-01-13T03:12:18.847Z,56.47
2023-01-13T03:13:18.856Z,56.47
2023-01-13T03:14:18.827Z,56.47
2023-01-13T03:15:18.839Z,56.47
2023-01-13T03:16:18.860Z,56.47
2023-01-13T03:17:18.842Z,56.47
2023-01-13T03:18:18.856Z,56.47
2023-01-13T03:19:18.853Z,56.47
2023-01-13T03:20:18.837Z,56.47
2023-01-13T03:21:18.857Z,56.47
2023-01-13T03:22:18.845Z,56.47
2023-01-13T03:23:18.882Z,56.47
2023-01-13T03:24:18.850Z,56.47
2023-01-13T03:25:18.866Z,56.47
2023-01-13T03:26:18.847Z,56.47
2023-01-13T03:27:18.855Z,56.47
2023-01-13T03:28:18.854Z,56.47
2023-01-13T03:29:18.860Z,56.47
2023-01-13T03:30:18.865Z,56.47
2023-01-13T03:31:18.863Z,56.47
2023-01-13T03:32:18.852Z,56.47
2023-01-13T03:33:18.873Z,56.47
2023-01-13T03:34:18.889Z,56.47
2023-01-13T03:35:18.883Z,56.47
2023-01-13T03:36:18.867Z,56.47
2023-01-13T03:37:18.860Z,56.47
2023-01-13T03:38:18.866Z,56.47
2023-01-13T03:39:18.940Z,56.47
2023-01-13T03:40:18.864Z,56.47
2023-01-13T03:41:18.887Z,56.47
2023-01-13T03:42:18.897Z,56.47
2023-01-13T03:43:18.871Z,56.47
2023-01-13T03:44:18.868Z,56.47
2023-01-13T03:45:18.871Z,56.47
2023-01-13T03:46:18.898Z,56.47
2023-01-13T03:47:18.876Z,56.47
2023-01-13T03:48:18.878Z,56.47
2023-01-13T03:49:18.882Z,56.47
2023-01-13T03:50:18.881Z,56.47
2023-01-13T03:51:18.873Z,56.47
2023-01-13T03:52:18.873Z,56.47
2023-01-13T03:53:18.881Z,56.47
2023-01-13T03:54:18.876Z,56.47
2023-01-13T03:55:18.894Z,56.47
2023-01-13T03:56:18.875Z,56.47
2023-01-13T03:57:18.893Z,56.47
2023-01-13T03:58:18.948Z,56.47
2023-01-13T03:59:18.873Z,56.47
2023-01-13T04:00:18.888Z,56.47
2023-01-13T04:01:18.977Z,56.47
2023-01-13T04:02:18.957Z,56.47
2023-01-13T04:03:18.873Z,56.47
2023-01-13T04:04:18.896Z,56.47
2023-01-13T04:05:18.889Z,56.47
2023-01-13T04:06:18.902Z,56.47
2023-01-13T04:07:18.885Z,56.47
2023-01-13T04:08:18.883Z,56.47
2023-01-13T04:09:18.892Z,56.47
2023-01-13T04:10:18.890Z,56.47
2023-01-13T04:11:18.920Z,56.47
2023-01-13T04:12:18.886Z,56.47
2023-01-13T04:13:18.887Z,56.47
2023-01-13T04:14:18.896Z,56.47
2023-01-13T04:15:18.929Z,56.47
2023-01-13T04:16:18.897Z,56.47
2023-01-13T04:17:18.907Z,56.47
2023-01-13T04:18:18.918Z,56.47
2023-01-13T04:19:18.886Z,56.47
2023-01-13T04:20:18.921Z,56.47
2023-01-13T04:21:18.901Z,56.47
2023-01-13T04:22:18.898Z,56.47
2023-01-13T04:23:18.908Z,56.47
2023-01-13T04:24:18.900Z,56.47
2023-01-13T04:25:18.903Z,56.47
2023-01-13T04:26:18.939Z,56.47
2023-01-13T04:27:18.931Z,56.47
2023-01-13T04:28:18.896Z,56.47
2023-01-13T04:29:18.896Z,56.47
2023-01-13T04:30:18.911Z,56.47
2023-01-13T04:31:18.975Z,56.47
2023-01-13T04:32:18.938Z,56.47
2023-01-13T04:33:18.910Z,56.47
2023-01-13T04:34:18.909Z,56.47
2023-01-13T04:35:18.919Z,56.47
2023-01-13T04:36:18.916Z,56.47
2023-01-13T04:37:18.951Z,56.47
2023-01-13T04:38:18.921Z,56.47
2023-01-13T04:39:18.922Z,56.47
2023-01-13T04:40:18.925Z,56.47
2023-01-13T04:41:18.927Z,56.47
2023-01-13T04:42:18.920Z,56.47
2023-01-13T04:43:18.958Z,56.47
2023-01-13T04:44:18.927Z,56.47
2023-01-13T04:45:18.924Z,56.47
2023-01-13T04:46:19.011Z,56.47
2023-01-13T04:47:18.935Z,56.47
2023-01-13T04:48:18.939Z,56.47
2023-01-13T04:49:18.927Z,56.47
2023-01-13T04:50:18.940Z,56.47
2023-01-13T04:51:18.931Z,56.47
2023-01-13T04:52:18.954Z,56.47
2023-01-13T04:53:18.939Z,56.47
2023-01-13T04:54:18.941Z,56.47
2023-01-13T04:55:18.954Z,56.47
2023-01-13T04:56:18.930Z,56.47
2023-01-13T04:57:18.944Z,56.47
2023-01-13T04:58:18.943Z,56.47
2023-01-13T04:59:18.970Z,56.47
2023-01-13T05:00:18.957Z,56.47
2023-01-13T05:01:19.090Z,56.47
2023-01-13T05:02:18.993Z,56.47
2023-01-13T05:03:18.928Z,56.47
2023-01-13T05:04:18.952Z,56.47
2023-01-13T05:05:18.943Z,56.47
2023-01-13T05:06:18.961Z,197.65
2023-01-13T05:07:18.956Z,183.53
2023-01-13T05:08:18.940Z,184.94
2023-01-13T05:09:18.938Z,169.41
2023-01-13T05:10:18.954Z,151.06
2023-01-13T05:11:18.961Z,194.82
2023-01-13T05:12:18.941Z,163.76
2023-01-13T05:13:18.960Z,175.06
2023-01-13T05:14:18.948Z,131.29
2023-01-13T05:15:18.976Z,134.12
2023-01-13T05:16:18.998Z,139.76
2023-01-13T05:17:18.953Z,141.18
2023-01-13T05:18:18.961Z,121.41
2023-01-13T05:19:18.963Z,121.41
2023-01-13T05:20:18.955Z,121.41
2023-01-13T05:21:19.000Z,121.41
2023-01-13T05:22:18.964Z,121.41
2023-01-13T05:23:18.960Z,121.41
2023-01-13T05:24:18.969Z,121.41
2023-01-13T05:25:18.957Z,121.41
2023-01-13T05:26:18.969Z,121.41
2023-01-13T05:27:18.964Z,121.41
2023-01-13T05:28:18.971Z,121.41
2023-01-13T05:29:18.974Z,121.41
2023-01-13T05:30:18.977Z,121.41
2023-01-13T05:31:19.065Z,121.41
2023-01-13T05:32:18.970Z,121.41
2023-01-13T05:33:18.973Z,121.41
2023-01-13T05:34:18.985Z,121.41
2023-01-13T05:35:18.968Z,121.41
2023-01-13T05:36:18.963Z,121.41
2023-01-13T05:37:18.989Z,121.41
2023-01-13T05:38:18.999Z,121.41
2023-01-13T05:39:18.971Z,121.41
2023-01-13T05:40:18.980Z,121.41
2023-01-13T05:41:19.027Z,121.41
2023-01-13T05:42:18.978Z,121.41
2023-01-13T05:43:18.978Z,121.41
2023-01-13T05:44:18.983Z,121.41
2023-01-13T05:45:19.000Z,121.41
2023-01-13T05:46:19.047Z,121.41
2023-01-13T05:47:19.100Z,121.41
2023-01-13T05:48:18.995Z,121.41
2023-01-13T05:49:18.991Z,121.41
2023-01-13T05:50:18.987Z,121.41
2023-01-13T05:51:18.994Z,121.41
2023-01-13T05:52:18.996Z,121.41
2023-01-13T05:53:18.997Z,121.41
2023-01-13T05:54:18.996Z,121.41
2023-01-13T05:55:18.991Z,121.41
2023-01-13T05:56:19.003Z,121.41
2023-01-13T05:57:19.007Z,105.88
2023-01-13T05:58:19.000Z,91.76
2023-01-13T05:59:19.007Z,129.88
2023-01-13T06:00:18.983Z,122.82
2023-01-13T06:01:19.076Z,122.82
2023-01-13T06:02:18.995Z,98.82
2023-01-13T06:03:19.082Z,98.82
2023-01-13T06:04:19.050Z,98.82
2023-01-13T06:05:18.997Z,98.82
2023-01-13T06:06:19.005Z,98.82
2023-01-13T06:07:19.000Z,98.82
2023-01-13T06:08:19.106Z,98.82
2023-01-13T06:09:19.005Z,98.82
2023-01-13T06:10:19.008Z,98.82
2023-01-13T06:11:18.995Z,98.82
2023-01-13T06:12:19.014Z,98.82
2023-01-13T06:13:18.998Z,98.82
2023-01-13T06:14:19.006Z,98.82
2023-01-13T06:15:19.004Z,98.82
2023-01-13T06:16:19.075Z,98.82
2023-01-13T06:17:19.005Z,98.82
2023-01-13T06:18:19.001Z,98.82
2023-01-13T06:19:19.019Z,59.29
2023-01-13T06:20:19.001Z,53.65
2023-01-13T06:21:19.000Z,53.65
2023-01-13T06:22:19.000Z,53.65
2023-01-13T06:23:19.002Z,53.65
2023-01-13T06:24:19.003Z,53.65
2023-01-13T06:25:19.015Z,53.65
2023-01-13T06:26:19.004Z,53.65
2023-01-13T06:27:19.016Z,53.65
2023-01-13T06:28:19.009Z,52.24
2023-01-13T06:29:19.014Z,77.65
2023-01-13T06:30:19.015Z,81.88
2023-01-13T06:31:19.059Z,112.94
2023-01-13T06:32:19.000Z,97.41
2023-01-13T06:33:19.029Z,120
2023-01-13T06:34:19.015Z,103.06
2023-01-13T06:35:19.056Z,98.82
2023-01-13T06:36:19.029Z,90.35
2023-01-13T06:37:19.007Z,84.71
2023-01-13T06:38:19.031Z,103.06
2023-01-13T06:39:19.028Z,103.06
2023-01-13T06:40:19.016Z,142.59
2023-01-13T06:41:19.024Z,96
2023-01-13T06:42:19.018Z,110.12
2023-01-13T06:43:19.018Z,50.82
2023-01-13T06:44:19.032Z,52.24
2023-01-13T06:45:19.020Z,57.88
2023-01-13T06:46:19.081Z,63.53
2023-01-13T06:47:19.008Z,62.12
2023-01-13T06:48:19.020Z,81.88
2023-01-13T06:49:21.440Z,84.71
2023-01-13T06:50:19.020Z,60.71
2023-01-13T06:51:19.041Z,50.82
2023-01-13T06:52:19.037Z,50.82
2023-01-13T06:53:19.040Z,52.24
2023-01-13T06:54:19.030Z,53.65
2023-01-13T06:55:19.026Z,53.65
2023-01-13T06:56:19.034Z,62.12
2023-01-13T06:57:19.020Z,60.71
2023-01-13T06:58:19.023Z,70.59
2023-01-13T06:59:19.029Z,62.12
2023-01-13T07:00:19.044Z,56.47
2023-01-13T07:01:19.124Z,56.47
2023-01-13T07:02:19.212Z,63.53
2023-01-13T07:03:19.018Z,22.59
2023-01-13T07:04:19.018Z,63.53
2023-01-13T07:05:19.039Z,62.12
2023-01-13T07:06:19.031Z,59.29
2023-01-13T07:07:19.052Z,59.29
2023-01-13T07:08:19.027Z,59.29
2023-01-13T07:09:19.047Z,59.29
2023-01-13T07:10:19.034Z,59.29
2023-01-13T07:11:19.027Z,59.29
2023-01-13T07:12:19.030Z,59.29
2023-01-13T07:13:19.035Z,59.29
2023-01-13T07:14:19.030Z,59.29
2023-01-13T07:15:19.029Z,59.29
2023-01-13T07:16:19.080Z,60.71
2023-01-13T07:17:19.032Z,62.12
2023-01-13T07:18:19.040Z,50.82
2023-01-13T07:19:20.412Z,50.82
2023-01-13T07:20:19.029Z,50.82
2023-01-13T07:21:19.022Z,50.82
2023-01-13T07:22:19.042Z,50.82
2023-01-13T07:23:19.069Z,50.82
2023-01-13T07:24:19.065Z,50.82
2023-01-13T07:25:19.040Z,50.82
2023-01-13T07:26:19.039Z,50.82
2023-01-13T07:27:19.062Z,345.88
2023-01-13T07:28:19.035Z,345.88
2023-01-13T07:29:19.047Z,345.88
2023-01-13T07:30:19.043Z,345.88
2023-01-13T07:31:19.084Z,345.88
2023-01-13T07:32:19.041Z,345.88
2023-01-13T07:33:19.052Z,345.88
2023-01-13T07:34:19.056Z,345.88
2023-01-13T07:35:19.038Z,350.12
2023-01-13T07:36:19.037Z,351.53
2023-01-13T07:37:19.031Z,74.82
2023-01-13T07:38:19.045Z,81.88
2023-01-13T07:39:19.060Z,107.29
2023-01-13T07:40:19.046Z,107.29
2023-01-13T07:41:19.025Z,107.29
2023-01-13T07:42:19.044Z,91.76
2023-01-13T07:43:19.045Z,110.12
2023-01-13T07:44:19.041Z,70.59
2023-01-13T07:45:19.034Z,57.88
2023-01-13T07:46:19.042Z,57.88
2023-01-13T07:47:19.044Z,57.88
2023-01-13T07:48:19.042Z,57.88
2023-01-13T07:49:19.044Z,57.88
2023-01-13T07:50:19.040Z,57.88
2023-01-13T07:51:19.058Z,57.88
2023-01-13T07:52:19.041Z,57.88
2023-01-13T07:53:19.056Z,57.88
2023-01-13T07:54:19.405Z,57.88
2023-01-13T07:55:19.072Z,57.88
2023-01-13T07:56:19.038Z,57.88
2023-01-13T07:57:19.054Z,57.88
2023-01-13T07:58:19.050Z,57.88
2023-01-13T07:59:19.057Z,57.88
2023-01-13T08:00:19.054Z,57.88
2023-01-13T08:01:19.131Z,57.88
2023-01-13T08:02:19.268Z,57.88
2023-01-13T08:03:19.059Z,57.88
2023-01-13T08:04:19.053Z,57.88
2023-01-13T08:05:19.053Z,57.88
2023-01-13T08:06:19.058Z,57.88
2023-01-13T08:07:19.053Z,57.88
2023-01-13T08:08:19.078Z,57.88
2023-01-13T08:09:19.062Z,57.88
2023-01-13T08:10:19.063Z,57.88
2023-01-13T08:11:19.077Z,57.88
2023-01-13T08:12:19.067Z,57.88
2023-01-13T08:13:19.068Z,57.88
2023-01-13T08:14:19.074Z,57.88
2023-01-13T08:15:19.077Z,57.88
2023-01-13T08:16:19.130Z,57.88
2023-01-13T08:17:20.507Z,57.88
2023-01-13T08:18:19.067Z,57.88
2023-01-13T08:19:19.068Z,57.88
2023-01-13T08:20:19.078Z,57.88
2023-01-13T08:21:19.077Z,57.88
2023-01-13T08:22:19.061Z,57.88
2023-01-13T08:23:19.060Z,57.88
2023-01-13T08:24:19.081Z,57.88
2023-01-13T08:25:19.062Z,57.88
2023-01-13T08:26:19.063Z,55.06
2023-01-13T08:27:19.088Z,52.24
2023-01-13T08:28:19.062Z,169.41
2023-01-13T08:29:19.070Z,169.41
2023-01-13T08:30:19.087Z,169.41
2023-01-13T08:31:19.078Z,169.41
2023-01-13T08:32:19.074Z,138.35
2023-01-13T08:33:19.092Z,108.71
2023-01-13T08:34:19.076Z,101.65
2023-01-13T08:35:19.066Z,100.24
2023-01-13T08:36:19.068Z,88.94
2023-01-13T08:37:19.073Z,88.94
2023-01-13T08:38:19.066Z,88.94
2023-01-13T08:39:19.075Z,88.94
2023-01-13T08:40:19.078Z,88.94
2023-01-13T08:41:19.082Z,88.94
2023-01-13T08:42:19.064Z,88.94
2023-01-13T08:43:19.105Z,81.88
2023-01-13T08:44:19.083Z,91.76
2023-01-13T08:45:19.077Z,103.06
2023-01-13T08:46:19.192Z,173.65
2023-01-13T08:47:19.077Z,179.29
2023-01-13T08:48:19.091Z,197.65
2023-01-13T08:49:19.099Z,184.94
2023-01-13T08:50:19.078Z,186.35
2023-01-13T08:51:19.083Z,182.12
2023-01-13T08:52:19.077Z,148.24
2023-01-13T08:53:19.085Z,170.82
2023-01-13T08:54:19.082Z,203.29
2023-01-13T08:55:19.074Z,196.24
2023-01-13T08:56:19.078Z,186.35
2023-01-13T08:57:19.120Z,177.88
2023-01-13T08:58:19.079Z,182.12
2023-01-13T08:59:19.107Z,176.47
2023-01-13T09:00:19.101Z,176.47
2023-01-13T09:01:19.286Z,176.47
2023-01-13T09:02:19.219Z,176.47
2023-01-13T09:03:19.085Z,176.47
2023-01-13T09:04:19.100Z,176.47
2023-01-13T09:05:19.088Z,176.47
2023-01-13T09:06:19.097Z,176.47
2023-01-13T09:07:19.085Z,176.47
2023-01-13T09:08:19.089Z,271.06
2023-01-13T09:09:19.100Z,292.24
2023-01-13T09:10:19.107Z,261.18
2023-01-13T09:11:19.089Z,261.18
2023-01-13T09:12:19.130Z,261.18
2023-01-13T09:13:19.091Z,261.18
2023-01-13T09:14:19.086Z,302.12
2023-01-13T09:15:19.112Z,307.76
2023-01-13T09:16:19.201Z,296.47
2023-01-13T09:17:19.098Z,296.47
2023-01-13T09:18:19.098Z,296.47
2023-01-13T09:19:19.096Z,265.41
2023-01-13T09:20:19.086Z,247.06
2023-01-13T09:21:19.090Z,255.53
2023-01-13T09:22:19.097Z,258.35
2023-01-13T09:23:19.095Z,282.35
2023-01-13T09:24:19.095Z,280.94
2023-01-13T09:25:19.115Z,255.53
2023-01-13T09:26:19.135Z,228.71
2023-01-13T09:27:19.109Z,228.71
2023-01-13T09:28:19.103Z,225.88
2023-01-13T09:29:19.110Z,214.59
2023-01-13T09:30:19.100Z,214.59
2023-01-13T09:31:19.217Z,214.59
2023-01-13T09:32:19.111Z,214.59
2023-01-13T09:33:19.116Z,230.12
2023-01-13T09:34:19.107Z,232.94
2023-01-13T09:35:19.089Z,179.29
2023-01-13T09:36:19.105Z,179.29
2023-01-13T09:37:19.104Z,179.29
2023-01-13T09:38:19.118Z,179.29
2023-01-13T09:39:19.103Z,179.29
2023-01-13T09:40:19.107Z,179.29
2023-01-13T09:41:19.104Z,179.29
2023-01-13T09:42:19.098Z,179.29
2023-01-13T09:43:19.126Z,179.29
2023-01-13T09:44:19.102Z,179.29
2023-01-13T09:45:19.113Z,179.29
2023-01-13T09:46:19.133Z,179.29
2023-01-13T09:47:19.127Z,179.29
2023-01-13T09:48:19.139Z,179.29
2023-01-13T09:49:19.105Z,179.29
2023-01-13T09:50:19.116Z,179.29
2023-01-13T09:51:19.182Z,179.29
2023-01-13T09:52:19.115Z,179.29
2023-01-13T09:53:19.122Z,179.29
2023-01-13T09:54:19.113Z,179.29
2023-01-13T09:55:19.105Z,179.29
2023-01-13T09:56:19.110Z,179.29
2023-01-13T09:57:19.129Z,179.29
2023-01-13T09:58:19.134Z,179.29
2023-01-13T09:59:19.104Z,179.29
2023-01-13T10:00:19.118Z,179.29
2023-01-13T10:01:19.145Z,179.29
2023-01-13T10:02:19.117Z,179.29
2023-01-13T10:03:19.256Z,179.29
2023-01-13T10:04:19.165Z,179.29
2023-01-13T10:05:19.114Z,163.76
2023-01-13T10:06:19.133Z,175.06
2023-01-13T10:07:19.335Z,175.06
2023-01-13T10:08:19.132Z,175.06
2023-01-13T10:09:19.118Z,175.06
2023-01-13T10:10:19.120Z,175.06
2023-01-13T10:11:19.123Z,175.06
2023-01-13T10:12:19.133Z,175.06
2023-01-13T10:13:19.120Z,175.06
2023-01-13T10:14:19.134Z,175.06
2023-01-13T10:15:19.128Z,175.06
2023-01-13T10:16:19.165Z,175.06
2023-01-13T10:17:19.181Z,175.06
2023-01-13T10:18:19.274Z,175.06
2023-01-13T10:19:19.158Z,175.06
2023-01-13T10:20:19.141Z,175.06
2023-01-13T10:21:19.150Z,175.06
2023-01-13T10:22:19.137Z,175.06
2023-01-13T10:23:19.139Z,175.06
2023-01-13T10:24:19.148Z,175.06
2023-01-13T10:25:19.117Z,175.06
2023-01-13T10:26:19.229Z,175.06
2023-01-13T10:27:19.118Z,175.06
2023-01-13T10:28:19.382Z,175.06
2023-01-13T10:29:19.142Z,175.06
2023-01-13T10:30:19.195Z,175.06
2023-01-13T10:31:19.185Z,175.06
2023-01-13T10:32:19.130Z,175.06
2023-01-13T10:33:19.127Z,175.06
2023-01-13T10:34:19.133Z,175.06
2023-01-13T10:35:19.161Z,175.06
2023-01-13T10:36:19.134Z,175.06
2023-01-13T10:37:19.132Z,175.06
2023-01-13T10:38:19.197Z,175.06
2023-01-13T10:39:19.146Z,175.06
2023-01-13T10:40:19.203Z,175.06
2023-01-13T10:41:19.146Z,175.06
2023-01-13T10:42:19.141Z,175.06
2023-01-13T10:43:19.139Z,175.06
2023-01-13T10:44:19.176Z,175.06
2023-01-13T10:45:19.159Z,175.06
2023-01-13T10:46:19.261Z,175.06
2023-01-13T10:47:19.139Z,175.06
2023-01-13T10:48:19.134Z,175.06
2023-01-13T10:49:19.165Z,234.35
2023-01-13T10:50:19.144Z,262.59
2023-01-13T10:51:19.168Z,232.94
2023-01-13T10:52:19.301Z,247.06
2023-01-13T10:53:19.151Z,163.76
2023-01-13T10:54:19.164Z,166.59
2023-01-13T10:55:19.145Z,148.24
2023-01-13T10:56:19.155Z,146.82
2023-01-13T10:57:19.196Z,152.47
2023-01-13T10:58:19.140Z,234.35
2023-01-13T10:59:19.144Z,251.29
2023-01-13T11:00:19.160Z,231.53
2023-01-13T11:01:19.321Z,217.41
2023-01-13T11:02:25.534Z,186.35
2023-01-13T11:03:19.146Z,217.41
2023-01-13T11:04:19.160Z,217.41
2023-01-13T11:05:19.170Z,200.47
2023-01-13T11:06:19.161Z,245.65
2023-01-13T11:07:19.188Z,237.18
2023-01-13T11:08:19.157Z,252.71
2023-01-13T11:09:19.177Z,223.06
2023-01-13T11:10:19.172Z,237.18
2023-01-13T11:11:19.156Z,240
2023-01-13T11:12:19.158Z,264
2023-01-13T11:13:19.161Z,252.71
2023-01-13T11:14:19.174Z,255.53
2023-01-13T11:15:19.168Z,292.24
2023-01-13T11:16:19.287Z,261.18
2023-01-13T11:17:19.163Z,296.47
2023-01-13T11:18:19.171Z,293.65
2023-01-13T11:19:19.158Z,288
2023-01-13T11:20:19.148Z,288
2023-01-13T11:21:19.158Z,288
2023-01-13T11:22:19.165Z,288
2023-01-13T11:23:19.191Z,288
2023-01-13T11:24:19.159Z,304.94
2023-01-13T11:25:19.162Z,299.29
2023-01-13T11:26:19.163Z,286.59
2023-01-13T11:27:19.168Z,264
2023-01-13T11:28:19.188Z,278.12
2023-01-13T11:29:19.156Z,278.12
2023-01-13T11:30:19.156Z,276.71
2023-01-13T11:31:19.235Z,259.76
2023-01-13T11:32:19.177Z,259.76
2023-01-13T11:33:19.175Z,259.76
2023-01-13T11:34:19.171Z,259.76
2023-01-13T11:35:19.203Z,259.76
2023-01-13T11:36:20.567Z,259.76
2023-01-13T11:37:19.165Z,259.76
2023-01-13T11:38:19.176Z,259.76
2023-01-13T11:39:19.200Z,259.76
2023-01-13T11:40:19.168Z,259.76
2023-01-13T11:41:19.162Z,259.76
2023-01-13T11:42:19.172Z,259.76
2023-01-13T11:43:19.246Z,259.76
2023-01-13T11:44:19.172Z,259.76
2023-01-13T11:45:19.172Z,259.76
2023-01-13T11:46:19.221Z,259.76
2023-01-13T11:47:19.175Z,259.76
2023-01-13T11:48:19.158Z,259.76
2023-01-13T11:49:20.834Z,259.76
2023-01-13T11:50:19.180Z,259.76
2023-01-13T11:51:19.181Z,259.76
2023-01-13T11:52:19.176Z,259.76
2023-01-13T11:53:19.189Z,259.76
2023-01-13T11:54:19.172Z,259.76
2023-01-13T11:55:20.194Z,259.76
2023-01-13T11:56:19.174Z,259.76
2023-01-13T11:57:19.181Z,259.76
2023-01-13T11:58:19.180Z,259.76
2023-01-13T11:59:19.187Z,259.76
2023-01-13T12:00:19.175Z,252.71
2023-01-13T12:01:20.926Z,252.71
2023-01-13T12:02:19.256Z,252.71
2023-01-13T12:03:19.233Z,252.71
2023-01-13T12:04:19.184Z,252.71
2023-01-13T12:05:19.199Z,252.71
2023-01-13T12:06:19.184Z,252.71
2023-01-13T12:07:20.769Z,252.71
2023-01-13T12:08:19.221Z,252.71
2023-01-13T12:09:19.192Z,252.71
2023-01-13T12:10:19.182Z,252.71
2023-01-13T12:11:19.236Z,252.71
2023-01-13T12:12:19.187Z,169.41
2023-01-13T12:13:19.189Z,180.71
2023-01-13T12:14:19.193Z,152.47
2023-01-13T12:15:19.190Z,152.47
2023-01-13T12:16:19.241Z,139.76
2023-01-13T12:17:19.179Z,203.29
2023-01-13T12:18:19.181Z,201.88
2023-01-13T12:19:19.182Z,129.88
2023-01-13T12:20:19.208Z,216
2023-01-13T12:21:19.193Z,259.76
2023-01-13T12:22:19.188Z,197.65
2023-01-13T12:23:19.188Z,173.65
2023-01-13T12:24:19.184Z,173.65
2023-01-13T12:25:19.191Z,173.65
2023-01-13T12:26:19.183Z,173.65
2023-01-13T12:27:19.220Z,173.65
2023-01-13T12:28:19.268Z,173.65
2023-01-13T12:29:19.189Z,173.65
2023-01-13T12:30:19.212Z,173.65
2023-01-13T12:31:19.264Z,173.65
2023-01-13T12:32:19.190Z,173.65
2023-01-13T12:33:19.179Z,173.65
2023-01-13T12:34:19.187Z,173.65
2023-01-13T12:35:19.197Z,173.65
2023-01-13T12:36:19.195Z,144
2023-01-13T12:37:19.202Z,165.18
2023-01-13T12:38:19.213Z,216
2023-01-13T12:39:19.190Z,245.65
2023-01-13T12:40:19.185Z,237.18
2023-01-13T12:41:19.197Z,259.76
2023-01-13T12:42:19.203Z,283.76